createdAt,value
2018-12-21T00:02:22.739Z,77.90
2018-12-21T00:04:51.898Z,71.10
2018-12-21T00:07:21.293Z,75.12
2018-12-21T00:09:50.601Z,71.90
2018-12-21T00:12:19.691Z,72.60
2018-12-21T00:14:49.292Z,73.78
2018-12-21T00:17:18.355Z,76.72
2018-12-21T00:19:47.613Z,70.75
2018-12-21T00:22:16.907Z,70.40
2018-12-21T00:24:45.987Z,69.20
2018-12-21T00:27:15.002Z,72.05
2018-12-21T00:29:44.384Z,73.15
2018-12-21T00:32:18.671Z,74.40
2018-12-21T00:34:52.705Z,69.50
2018-12-21T00:37:26.820Z,72.12
2018-12-21T00:40:01.060Z,69.20
2018-12-21T00:42:38.131Z,73.83
2018-12-21T00:45:09.367Z,68.60
2018-12-21T00:47:38.543Z,70.25
2018-12-21T00:50:08.537Z,67.42
2018-12-21T00:52:37.937Z,61.33
2018-12-21T00:55:07.196Z,66.00
2018-12-21T00:57:36.273Z,65.42
2018-12-21T01:00:06.641Z,67.05
2018-12-21T01:02:36.145Z,69.30
2018-12-21T01:05:05.382Z,70.00
2018-12-21T01:07:34.615Z,64.50
2018-12-21T01:10:03.952Z,64.12
2018-12-21T01:12:34.781Z,59.77
2018-12-21T01:15:04.058Z,64.60
2018-12-21T01:17:33.801Z,61.80
2018-12-21T01:20:02.948Z,62.62
2018-12-21T01:22:32.037Z,60.08
2018-12-21T01:25:01.401Z,58.48
2018-12-21T01:27:30.676Z,64.58
2018-12-21T01:29:59.891Z,65.03
2018-12-21T01:32:29.412Z,60.58
2018-12-21T01:34:58.908Z,59.38
2018-12-21T01:37:28.195Z,60.67
2018-12-21T01:39:57.582Z,58.78
2018-12-21T01:42:26.826Z,58.63
2018-12-21T01:44:56.233Z,59.88
2018-12-21T01:47:25.748Z,55.58
2018-12-21T01:49:55.087Z,53.95
2018-12-21T01:52:24.263Z,56.10
2018-12-21T01:54:53.609Z,58.33
2018-12-21T01:57:22.792Z,56.18
2018-12-21T01:59:51.901Z,56.92
2018-12-21T02:02:21.251Z,55.28
2018-12-21T02:04:50.564Z,57.35
2018-12-21T02:07:19.590Z,53.15
2018-12-21T02:09:48.823Z,57.03
2018-12-21T02:12:17.987Z,57.17
2018-12-21T02:14:47.194Z,54.93
2018-12-21T02:17:16.303Z,57.38
2018-12-21T02:19:45.699Z,54.53
2018-12-21T02:22:14.897Z,54.42
2018-12-21T02:24:44.084Z,56.88
2018-12-21T02:27:13.228Z,53.63
2018-12-21T02:29:42.620Z,56.35
2018-12-21T02:32:11.998Z,53.08
2018-12-21T02:34:41.117Z,55.40
2018-12-21T02:37:10.294Z,51.98
2018-12-21T02:39:39.352Z,54.93
2018-12-21T02:42:08.705Z,52.70
2018-12-21T02:44:37.896Z,51.75
2018-12-21T02:47:07.195Z,52.13
2018-12-21T02:49:36.414Z,51.30
2018-12-21T02:52:05.915Z,49.13
2018-12-21T02:54:35.572Z,46.88
2018-12-21T02:57:05.557Z,48.33
2018-12-21T02:59:34.771Z,48.30
2018-12-21T03:02:04.132Z,44.83
2018-12-21T03:04:33.216Z,48.50
2018-12-21T03:07:02.484Z,51.65
2018-12-21T03:09:31.555Z,48.20
2018-12-21T03:12:00.704Z,54.48
2018-12-21T03:14:29.942Z,47.03
2018-12-21T03:16:59.206Z,49.63
2018-12-21T03:19:28.414Z,49.65
2018-12-21T03:21:57.511Z,47.73
2018-12-21T03:24:26.719Z,51.60
2018-12-21T03:26:55.893Z,48.52
2018-12-21T03:29:24.897Z,44.65
2018-12-21T03:31:54.146Z,48.85
2018-12-21T03:34:23.303Z,44.53
2018-12-21T03:36:52.700Z,48.73
2018-12-21T03:39:21.691Z,42.30
2018-12-21T03:41:50.557Z,45.83
2018-12-21T03:44:19.866Z,46.65
2018-12-21T03:46:49.092Z,45.60
2018-12-21T03:49:18.347Z,44.33
2018-12-21T03:51:47.589Z,42.25
2018-12-21T03:54:16.809Z,45.78
2018-12-21T03:56:46.075Z,47.15
2018-12-21T03:59:15.323Z,47.90
2018-12-21T04:01:44.543Z,44.25
2018-12-21T04:04:13.905Z,41.98
2018-12-21T04:06:43.216Z,44.67
2018-12-21T04:09:12.505Z,41.65
2018-12-21T04:11:41.904Z,42.25
2018-12-21T04:14:11.170Z,42.75
2018-12-21T04:16:40.303Z,46.58
2018-12-21T04:19:09.497Z,43.38
2018-12-21T04:21:38.803Z,44.18
2018-12-21T04:24:08.025Z,43.35
2018-12-21T04:26:37.063Z,43.83
2018-12-21T04:29:06.169Z,43.98
2018-12-21T04:31:35.277Z,43.63
2018-12-21T04:34:04.604Z,43.63
2018-12-21T04:36:33.983Z,43.58
2018-12-21T04:39:04.230Z,43.38
2018-12-21T04:41:33.293Z,45.28
2018-12-21T04:44:02.380Z,43.35
2018-12-21T04:46:31.488Z,39.08
2018-12-21T04:49:00.803Z,43.10
2018-12-21T04:51:29.762Z,41.63
2018-12-21T04:53:58.956Z,41.73
2018-12-21T04:56:28.184Z,39.45
2018-12-21T04:58:57.288Z,40.55
2018-12-21T05:01:26.743Z,40.75
2018-12-21T05:03:56.093Z,41.48
2018-12-21T05:06:25.347Z,44.40
2018-12-21T05:08:54.651Z,40.03
2018-12-21T05:11:26.068Z,39.42
2018-12-21T05:13:55.346Z,40.60
2018-12-21T05:16:24.537Z,40.23
2018-12-21T05:18:53.835Z,38.73
2018-12-21T05:21:22.939Z,38.28
2018-12-21T05:23:52.187Z,39.33
2018-12-21T05:26:21.364Z,37.45
2018-12-21T05:28:50.308Z,40.38
2018-12-21T05:31:28.069Z,38.58
2018-12-21T05:33:51.569Z,39.27
2018-12-21T05:36:20.764Z,39.58
2018-12-21T05:38:49.857Z,36.70
2018-12-21T05:41:19.027Z,38.13
2018-12-21T05:43:48.209Z,36.23
2018-12-21T05:46:17.234Z,36.05
2018-12-21T05:48:46.376Z,36.48
2018-12-21T05:51:15.404Z,39.70
2018-12-21T05:53:44.464Z,40.10
2018-12-21T05:56:13.612Z,36.17
2018-12-21T05:58:42.743Z,33.90
2018-12-21T06:01:11.843Z,37.20
2018-12-21T06:03:40.936Z,36.10
2018-12-21T06:06:09.996Z,39.10
2018-12-21T06:08:39.160Z,37.28
2018-12-21T06:11:08.251Z,39.40
2018-12-21T06:13:37.409Z,34.58
2018-12-21T06:16:06.547Z,35.98
2018-12-21T06:18:35.747Z,39.35
2018-12-21T06:21:04.864Z,31.97
2018-12-21T06:23:34.020Z,37.42
2018-12-21T06:26:03.333Z,47.98
2018-12-21T06:28:32.369Z,40.50
2018-12-21T06:31:01.535Z,42.35
2018-12-21T06:33:30.803Z,54.60
2018-12-21T06:36:00.058Z,74.65
2018-12-21T06:38:29.335Z,85.45
2018-12-21T06:40:58.554Z,71.12
2018-12-21T06:43:27.728Z,91.32
2018-12-21T06:45:57.627Z,88.55
2018-12-21T06:48:26.976Z,90.55
2018-12-21T06:50:56.262Z,109.27
2018-12-21T06:53:25.656Z,83.20
2018-12-21T06:55:54.995Z,102.65
2018-12-21T06:58:24.227Z,89.55
2018-12-21T07:00:53.451Z,103.17
2018-12-21T07:03:22.772Z,90.30
2018-12-21T07:05:51.964Z,112.90
2018-12-21T07:08:21.147Z,124.75
2018-12-21T07:10:50.219Z,137.20
2018-12-21T07:13:19.320Z,123.35
2018-12-21T07:15:48.424Z,128.15
2018-12-21T07:18:17.369Z,133.90
2018-12-21T07:20:46.627Z,141.15
2018-12-21T07:23:15.962Z,100.45
2018-12-21T07:25:45.107Z,84.13
2018-12-21T07:28:14.377Z,130.85
2018-12-21T07:30:43.616Z,148.85
2018-12-21T07:33:12.818Z,133.35
2018-12-21T07:35:42.533Z,153.20
2018-12-21T07:38:11.549Z,98.75
2018-12-21T07:40:40.736Z,107.63
2018-12-21T07:43:10.055Z,142.40
2018-12-21T07:45:39.334Z,162.70
2018-12-21T07:48:08.643Z,149.60
2018-12-21T07:50:37.635Z,155.27
2018-12-21T07:53:06.594Z,151.42
2018-12-21T07:55:35.596Z,156.47
2018-12-21T07:58:04.578Z,166.30
2018-12-21T08:00:33.855Z,157.93
2018-12-21T08:03:03.176Z,162.07
2018-12-21T08:05:32.235Z,153.93
2018-12-21T08:08:01.505Z,154.87
2018-12-21T08:10:30.544Z,149.23
2018-12-21T08:12:59.819Z,145.85
2018-12-21T08:15:28.884Z,146.15
2018-12-21T08:17:58.056Z,148.07
2018-12-21T08:20:27.197Z,147.65
2018-12-21T08:22:56.351Z,156.95
2018-12-21T08:25:25.706Z,159.63
2018-12-21T08:27:55.009Z,147.45
2018-12-21T08:30:24.317Z,146.60
2018-12-21T08:32:53.619Z,146.65
2018-12-21T08:35:22.821Z,156.43
2018-12-21T08:37:51.904Z,129.87
2018-12-21T08:40:21.055Z,110.63
2018-12-21T08:42:50.405Z,110.37
2018-12-21T08:45:19.711Z,115.25
2018-12-21T08:47:48.896Z,116.12
2018-12-21T08:50:18.133Z,119.13
2018-12-21T08:52:47.151Z,124.72
2018-12-21T08:55:16.426Z,133.25
2018-12-21T08:57:45.711Z,117.95
2018-12-21T09:00:15.159Z,135.85
2018-12-21T09:02:44.433Z,119.05
2018-12-21T09:05:13.730Z,115.15
2018-12-21T09:07:43.060Z,111.85
2018-12-21T09:10:12.236Z,114.42
2018-12-21T09:12:41.504Z,117.22
2018-12-21T09:15:14.815Z,119.97
2018-12-21T09:17:43.896Z,114.62
2018-12-21T09:20:13.077Z,115.57
2018-12-21T09:22:42.162Z,109.65
2018-12-21T09:25:11.174Z,111.00
2018-12-21T09:27:40.368Z,102.95
2018-12-21T09:30:12.731Z,101.87
2018-12-21T09:32:41.970Z,105.85
2018-12-21T09:35:11.043Z,107.10
2018-12-21T09:37:40.368Z,108.85
2018-12-21T09:40:11.633Z,107.72
2018-12-21T09:42:41.003Z,103.65
2018-12-21T09:45:10.298Z,102.95
2018-12-21T09:47:39.462Z,106.92
2018-12-21T09:50:10.037Z,104.43
2018-12-21T09:52:39.029Z,102.30
2018-12-21T09:55:08.633Z,97.78
2018-12-21T09:57:37.927Z,102.58
2018-12-21T10:00:09.800Z,99.00
2018-12-21T10:02:39.105Z,99.65
2018-12-21T10:05:10.448Z,109.12
2018-12-21T10:07:39.581Z,104.07
2018-12-21T10:10:08.853Z,102.92
2018-12-21T10:12:38.248Z,100.38
2018-12-21T10:15:08.232Z,107.63
2018-12-21T10:17:37.495Z,108.27
2018-12-21T10:20:08.108Z,102.80
2018-12-21T10:22:37.354Z,99.72
2018-12-21T10:25:07.256Z,98.35
2018-12-21T10:27:36.400Z,102.87
2018-12-21T10:30:06.320Z,97.10
2018-12-21T10:32:35.431Z,98.03
2018-12-21T10:35:04.515Z,101.87
2018-12-21T10:37:33.849Z,95.35
2018-12-21T10:40:03.151Z,98.82
2018-12-21T10:42:31.959Z,97.37
2018-12-21T10:45:01.196Z,99.50
2018-12-21T10:47:30.187Z,92.47
2018-12-21T10:49:59.534Z,84.95
2018-12-21T10:52:28.813Z,97.02
2018-12-21T10:54:57.863Z,97.50
2018-12-21T10:57:27.025Z,92.72
2018-12-21T10:59:56.104Z,99.87
2018-12-21T11:02:25.212Z,93.60
2018-12-21T11:04:54.372Z,90.80
2018-12-21T11:07:23.396Z,88.85
2018-12-21T11:09:52.793Z,96.90
2018-12-21T11:12:21.932Z,86.78
2018-12-21T11:14:51.079Z,91.15
2018-12-21T11:17:20.316Z,91.00
2018-12-21T11:19:49.667Z,86.42
2018-12-21T11:22:18.799Z,89.75
2018-12-21T11:24:48.135Z,87.27
2018-12-21T11:27:17.495Z,88.05
2018-12-21T11:29:46.383Z,90.35
2018-12-21T11:32:15.139Z,91.32
2018-12-21T11:34:44.059Z,91.20
2018-12-21T11:37:12.929Z,81.95
2018-12-21T11:39:41.705Z,83.95
2018-12-21T11:42:10.888Z,83.27
2018-12-21T11:44:40.476Z,90.90
2018-12-21T11:47:09.654Z,90.30
2018-12-21T11:49:39.060Z,92.10
2018-12-21T11:52:08.291Z,93.75
2018-12-21T11:54:44.195Z,86.10
2018-12-21T11:57:08.537Z,81.82
2018-12-21T11:59:44.881Z,83.10
2018-12-21T12:02:09.008Z,82.00
2018-12-21T12:04:38.267Z,85.03
2018-12-21T12:07:07.659Z,88.52
2018-12-21T12:09:36.704Z,79.45
2018-12-21T12:12:05.955Z,90.38
2018-12-21T12:14:35.036Z,85.22
2018-12-21T12:17:04.097Z,85.53
2018-12-21T12:19:33.218Z,84.60
2018-12-21T12:22:02.437Z,84.90
2018-12-21T12:24:31.611Z,83.55
2018-12-21T12:27:00.796Z,85.05
2018-12-21T12:29:29.995Z,80.77
2018-12-21T12:31:59.245Z,88.37
2018-12-21T12:34:28.374Z,79.42
2018-12-21T12:36:58.078Z,77.65
2018-12-21T12:39:27.436Z,79.53
2018-12-21T12:41:56.746Z,81.50
2018-12-21T12:44:25.932Z,81.53
2018-12-21T12:46:55.148Z,77.82
2018-12-21T12:49:24.328Z,76.82
2018-12-21T12:51:53.782Z,82.65
2018-12-21T12:54:23.063Z,78.33
2018-12-21T12:56:52.348Z,79.47
2018-12-21T12:59:21.408Z,79.95
2018-12-21T13:01:50.665Z,83.03
2018-12-21T13:04:19.952Z,75.55
2018-12-21T13:06:49.131Z,77.15
2018-12-21T13:09:18.360Z,72.53
2018-12-21T13:11:47.663Z,79.65
2018-12-21T13:14:16.926Z,78.02
2018-12-21T13:16:45.968Z,77.15
2018-12-21T13:19:15.032Z,73.67
2018-12-21T13:21:44.008Z,75.55
2018-12-21T13:24:13.232Z,74.45
2018-12-21T13:26:42.524Z,81.08
2018-12-21T13:29:11.950Z,75.30
2018-12-21T13:31:41.001Z,75.12
2018-12-21T13:34:09.916Z,75.85
2018-12-21T13:36:38.997Z,76.47
2018-12-21T13:39:09.435Z,69.32
2018-12-21T13:41:38.664Z,74.53
2018-12-21T13:44:07.940Z,72.40
2018-12-21T13:46:37.259Z,75.37
2018-12-21T13:49:06.452Z,76.57
2018-12-21T13:51:35.766Z,68.35
2018-12-21T13:54:05.162Z,72.32
2018-12-21T13:56:34.315Z,75.42
2018-12-21T13:59:03.555Z,73.02
2018-12-21T14:01:32.606Z,67.42
2018-12-21T14:04:01.880Z,71.25
2018-12-21T14:06:31.103Z,72.27
2018-12-21T14:09:00.358Z,70.37
2018-12-21T14:11:30.299Z,70.15
2018-12-21T14:13:59.648Z,72.95
2018-12-21T14:16:28.991Z,70.97
2018-12-21T14:18:58.259Z,68.22
2018-12-21T14:21:27.581Z,70.00
2018-12-21T14:23:56.964Z,71.97
2018-12-21T14:26:26.263Z,71.87
2018-12-21T14:28:55.549Z,68.42
2018-12-21T14:31:24.764Z,70.32
2018-12-21T14:33:53.954Z,71.25
2018-12-21T14:36:23.139Z,66.28
2018-12-21T14:38:52.364Z,65.50
2018-12-21T14:41:21.690Z,67.08
2018-12-21T14:43:50.880Z,70.37
2018-12-21T14:46:20.265Z,69.85
2018-12-21T14:48:49.256Z,68.02
2018-12-21T14:51:18.473Z,66.62
2018-12-21T14:53:47.552Z,63.80
2018-12-21T14:56:16.751Z,66.25
2018-12-21T14:58:45.835Z,66.20
2018-12-21T15:01:15.080Z,67.40
2018-12-21T15:03:44.354Z,72.45
2018-12-21T15:06:13.539Z,66.35
2018-12-21T15:08:42.741Z,62.05
2018-12-21T15:11:11.850Z,65.57
2018-12-21T15:13:40.836Z,67.65
2018-12-21T15:16:10.096Z,66.07
2018-12-21T15:18:39.451Z,68.45
2018-12-21T15:21:08.647Z,69.12
2018-12-21T15:23:37.939Z,67.75
2018-12-21T15:26:07.152Z,74.80
2018-12-21T15:28:36.141Z,82.40
2018-12-21T15:31:05.428Z,70.47
2018-12-21T15:33:34.737Z,76.97
2018-12-21T15:36:03.840Z,75.20
2018-12-21T15:38:32.935Z,78.95
2018-12-21T15:41:02.180Z,89.17
2018-12-21T15:43:31.536Z,82.95
2018-12-21T15:46:00.750Z,86.65
2018-12-21T15:48:30.123Z,89.90
2018-12-21T15:50:59.363Z,87.88
2018-12-21T15:53:28.735Z,99.20
2018-12-21T15:55:57.790Z,92.90
2018-12-21T15:58:26.961Z,97.30
2018-12-21T16:00:56.147Z,93.07
2018-12-21T16:03:25.203Z,96.82
2018-12-21T16:05:54.216Z,110.65
2018-12-21T16:08:23.417Z,102.17
2018-12-21T16:10:52.748Z,98.90
2018-12-21T16:13:22.050Z,87.35
2018-12-21T16:15:51.234Z,97.05
2018-12-21T16:18:20.211Z,94.42
2018-12-21T16:20:49.333Z,96.00
2018-12-21T16:23:18.337Z,99.00
2018-12-21T16:25:47.394Z,114.62
2018-12-21T16:28:16.716Z,92.42
2018-12-21T16:30:45.793Z,95.38
2018-12-21T16:33:15.028Z,96.20
2018-12-21T16:35:44.284Z,96.55
2018-12-21T16:38:13.375Z,90.03
2018-12-21T16:40:42.581Z,97.12
2018-12-21T16:43:11.850Z,91.42
2018-12-21T16:45:41.054Z,88.17
2018-12-21T16:48:10.536Z,97.62
2018-12-21T16:50:39.707Z,96.47
2018-12-21T16:53:09.218Z,95.25
2018-12-21T16:55:38.285Z,97.37
2018-12-21T16:58:07.492Z,97.02
2018-12-21T17:00:36.621Z,98.47
2018-12-21T17:03:05.824Z,94.22
2018-12-21T17:05:35.460Z,96.45
2018-12-21T17:08:04.641Z,86.97
2018-12-21T17:10:33.577Z,93.40
2018-12-21T17:13:02.584Z,122.58
2018-12-21T17:15:31.639Z,150.18
2018-12-21T17:18:00.750Z,157.97
2018-12-21T17:20:29.906Z,119.57
2018-12-21T17:23:00.796Z,115.35
2018-12-21T17:25:30.756Z,146.43
2018-12-21T17:28:00.111Z,147.57
2018-12-21T17:30:29.160Z,114.20
2018-12-21T17:32:58.587Z,134.47
2018-12-21T17:35:27.594Z,137.47
2018-12-21T17:37:56.731Z,167.30
2018-12-21T17:40:25.812Z,131.07
2018-12-21T17:42:55.148Z,135.43
2018-12-21T17:45:24.284Z,163.50
2018-12-21T17:47:53.460Z,123.38
2018-12-21T17:50:22.521Z,136.55
2018-12-21T17:52:51.440Z,142.90
2018-12-21T17:55:20.704Z,146.85
2018-12-21T17:57:49.931Z,156.78
2018-12-21T18:00:20.753Z,148.85
2018-12-21T18:02:55.075Z,142.68
2018-12-21T18:05:25.214Z,135.20
2018-12-21T18:07:57.363Z,154.70
2018-12-21T18:10:26.780Z,167.13
2018-12-21T18:12:55.847Z,155.67
2018-12-21T18:15:24.918Z,153.60
2018-12-21T18:17:54.203Z,159.75
2018-12-21T18:20:23.363Z,148.07
2018-12-21T18:22:52.474Z,151.70
2018-12-21T18:25:26.915Z,187.53
2018-12-21T18:27:58.399Z,204.10
2018-12-21T18:30:31.409Z,184.57
2018-12-21T18:33:10.279Z,167.20
2018-12-21T18:35:34.003Z,214.25
2018-12-21T18:38:05.684Z,178.35
2018-12-21T18:40:35.211Z,180.40
2018-12-21T18:43:04.584Z,235.32
2018-12-21T18:45:33.812Z,240.45
2018-12-21T18:48:03.100Z,208.15
2018-12-21T18:50:32.922Z,189.05
2018-12-21T18:53:02.120Z,203.15
2018-12-21T18:55:31.572Z,192.57
2018-12-21T18:58:00.811Z,166.97
2018-12-21T19:00:30.172Z,227.15
2018-12-21T19:02:59.422Z,177.32
2018-12-21T19:05:28.629Z,213.00
2018-12-21T19:07:57.814Z,201.92
2018-12-21T19:10:27.632Z,208.35
2018-12-21T19:12:57.020Z,223.95
2018-12-21T19:15:26.233Z,184.72
2018-12-21T19:17:55.347Z,186.43
2018-12-21T19:20:24.612Z,186.20
2018-12-21T19:22:53.914Z,218.67
2018-12-21T19:25:23.296Z,213.03
2018-12-21T19:27:52.433Z,191.53
2018-12-21T19:30:21.425Z,192.30
2018-12-21T19:32:50.717Z,202.68
2018-12-21T19:35:27.270Z,247.17
2018-12-21T19:37:51.373Z,262.10
2018-12-21T19:40:20.663Z,230.67
2018-12-21T19:42:49.968Z,225.68
2018-12-21T19:45:19.257Z,211.55
2018-12-21T19:47:48.724Z,208.38
2018-12-21T19:50:17.977Z,199.53
2018-12-21T19:52:47.430Z,197.40
2018-12-21T19:55:44.991Z,217.30
2018-12-21T19:58:14.043Z,209.70
2018-12-21T20:00:43.009Z,202.32
2018-12-21T20:03:12.252Z,205.62
2018-12-21T20:05:41.470Z,202.85
2018-12-21T20:08:10.639Z,207.45
2018-12-21T20:10:39.508Z,187.80
2018-12-21T20:13:08.630Z,195.87
2018-12-21T20:15:37.840Z,198.23
2018-12-21T20:18:07.239Z,201.98
2018-12-21T20:20:36.635Z,203.58
2018-12-21T20:23:05.734Z,195.77
2018-12-21T20:25:34.733Z,196.20
2018-12-21T20:28:03.800Z,197.50
2018-12-21T20:30:33.197Z,194.15
2018-12-21T20:33:02.264Z,187.37
2018-12-21T20:35:31.587Z,193.25
2018-12-21T20:38:01.444Z,179.38
2018-12-21T20:40:30.662Z,185.90
2018-12-21T20:42:59.940Z,189.55
2018-12-21T20:45:29.148Z,192.30
2018-12-21T20:47:58.416Z,177.80
2018-12-21T20:50:27.555Z,168.20
2018-12-21T20:52:56.736Z,171.25
2018-12-21T20:55:25.938Z,181.85
2018-12-21T20:58:00.292Z,177.53
2018-12-21T21:00:29.452Z,180.03
2018-12-21T21:02:58.751Z,176.68
2018-12-21T21:05:28.055Z,183.05
2018-12-21T21:07:57.374Z,178.80
2018-12-21T21:10:26.667Z,175.35
2018-12-21T21:12:55.935Z,179.65
2018-12-21T21:15:24.964Z,173.00
2018-12-21T21:17:54.251Z,166.10
2018-12-21T21:20:23.353Z,172.22
2018-12-21T21:22:52.682Z,172.47
2018-12-21T21:25:21.743Z,170.62
2018-12-21T21:27:50.943Z,165.85
2018-12-21T21:30:20.577Z,163.05
2018-12-21T21:32:49.620Z,166.62
2018-12-21T21:35:18.873Z,165.15
2018-12-21T21:37:48.077Z,172.93
2018-12-21T21:40:18.954Z,166.10
2018-12-21T21:42:57.221Z,164.97
2018-12-21T21:45:20.120Z,161.03
2018-12-21T21:47:49.245Z,168.85
2018-12-21T21:50:18.447Z,161.40
2018-12-21T21:52:47.559Z,157.90
2018-12-21T21:55:16.781Z,161.28
2018-12-21T21:57:45.800Z,156.93
2018-12-21T22:00:15.344Z,162.47
2018-12-21T22:02:44.675Z,156.15
2018-12-21T22:05:13.835Z,158.22
2018-12-21T22:07:42.935Z,158.22
2018-12-21T22:10:12.344Z,151.87
2018-12-21T22:12:41.570Z,151.30
2018-12-21T22:15:11.253Z,153.27
2018-12-21T22:17:40.551Z,158.07
2018-12-21T22:20:11.426Z,150.78
2018-12-21T22:22:40.648Z,147.20
2018-12-21T22:25:09.908Z,155.97
2018-12-21T22:27:47.732Z,153.82
2018-12-21T22:30:11.821Z,152.05
2018-12-21T22:32:40.938Z,150.50
2018-12-21T22:35:10.168Z,147.57
2018-12-21T22:37:39.467Z,146.20
2018-12-21T22:40:08.741Z,138.35
2018-12-21T22:42:37.895Z,144.10
2018-12-21T22:45:07.910Z,146.72
2018-12-21T22:47:37.297Z,142.50
2018-12-21T22:50:07.959Z,143.15
2018-12-21T22:52:37.633Z,142.03
2018-12-21T22:55:07.885Z,141.32
2018-12-21T22:57:37.064Z,147.35
2018-12-21T23:00:10.915Z,141.10
2018-12-21T23:02:40.083Z,132.07
2018-12-21T23:05:09.363Z,139.80
2018-12-21T23:07:38.637Z,144.43
2018-12-21T23:10:08.507Z,137.35
2018-12-21T23:12:37.516Z,143.52
2018-12-21T23:15:06.861Z,139.20
2018-12-21T23:17:36.185Z,141.10
2018-12-21T23:20:05.302Z,146.50
2018-12-21T23:22:34.341Z,136.88
2018-12-21T23:25:03.565Z,146.75
2018-12-21T23:27:32.591Z,135.80
2018-12-21T23:30:01.683Z,136.97
2018-12-21T23:32:30.780Z,133.97
2018-12-21T23:34:59.958Z,138.95
2018-12-21T23:37:29.057Z,140.37
2018-12-21T23:39:58.367Z,138.70
2018-12-21T23:42:27.443Z,142.43
2018-12-21T23:44:56.662Z,135.60
2018-12-21T23:47:25.886Z,139.18
2018-12-21T23:49:55.499Z,136.50
2018-12-21T23:52:24.755Z,131.47
2018-12-21T23:54:53.884Z,130.27
2018-12-21T23:57:23.204Z,130.50
2018-12-21T23:59:52.439Z,133.93
